Time,TemperatureF,DewpointF,PressureIn,WindDirection,WindDirectionDegrees,WindSpeedMPH,WindSpeedGustMPH,Humidity,HourlyPrecipIn,Conditions,Clouds,dailyrainin,SolarRadiationWatts/m^2,SoftwareType,DateUTC
2013-11-13 00:03:00,25.0,13.0,-100.00,North,1,5.0,11.0,59,0.00,,,0.00,0.000000,,2013-11-13 05:03:00,
2013-11-13 00:43:00,24.0,14.0,-100.00,North,6,5.0,11.0,64,0.00,,,0.00,0.000000,,2013-11-13 05:43:00,
2013-11-13 00:54:00,24.0,14.0,-100.00,North,6,5.0,11.0,64,0.00,,,0.00,0.000000,,2013-11-13 05:54:00,
2013-11-13 01:03:00,24.0,14.0,-100.00,North,6,5.0,11.0,64,0.00,,,0.00,0.000000,,2013-11-13 06:03:00,
2013-11-13 01:42:00,24.0,14.0,-100.00,NNE,26,5.0,11.0,66,0.00,,,0.00,0.000000,,2013-11-13 06:42:00,
2013-11-13 01:52:00,24.0,14.0,-100.00,NNE,26,5.0,11.0,66,0.00,,,0.00,0.000000,,2013-11-13 06:52:00,
2013-11-13 02:02:00,24.0,14.0,-100.00,NNE,26,5.0,11.0,66,0.00,,,0.00,0.000000,,2013-11-13 07:02:00,
2013-11-13 02:42:00,24.0,17.0,-100.00,NNE,13,4.0,10.0,74,0.00,,,0.00,0.000000,,2013-11-13 07:42:00,
2013-11-13 02:52:00,24.0,17.0,-100.00,NNE,13,4.0,10.0,74,0.00,,,0.00,0.000000,,2013-11-13 07:52:00,
2013-11-13 03:02:00,24.0,17.0,-100.00,NNE,13,4.0,10.0,74,0.00,,,0.00,0.000000,,2013-11-13 08:02:00,
2013-11-13 03:42:00,24.0,18.0,-100.00,North,355,5.0,13.0,76,0.00,,,0.00,0.000000,,2013-11-13 08:42:00,
2013-11-13 03:52:00,24.0,18.0,-100.00,North,355,5.0,13.0,76,0.00,,,0.00,0.000000,,2013-11-13 08:52:00,
2013-11-13 04:03:00,24.0,18.0,-100.00,North,355,5.0,13.0,76,0.00,,,0.00,0.000000,,2013-11-13 09:03:00,
2013-11-13 04:43:00,23.0,17.0,-100.00,North,9,5.0,10.0,78,0.00,,,0.00,0.000000,,2013-11-13 09:43:00,
2013-11-13 04:53:00,23.0,17.0,-100.00,North,9,5.0,10.0,78,0.00,,,0.00,0.000000,,2013-11-13 09:53:00,
2013-11-13 05:03:00,23.0,17.0,-100.00,North,9,5.0,10.0,78,0.00,,,0.00,0.000000,,2013-11-13 10:03:00,
2013-11-13 05:42:00,24.0,16.0,-100.00,NNE,20,6.0,14.0,71,0.00,,,0.00,0.000000,,2013-11-13 10:42:00,
2013-11-13 05:52:00,24.0,16.0,-100.00,NNE,20,6.0,14.0,71,0.00,,,0.00,0.000000,,2013-11-13 10:52:00,
2013-11-13 06:02:00,24.0,16.0,-100.00,NNE,20,6.0,14.0,71,0.00,,,0.00,0.000000,,2013-11-13 11:02:00,
2013-11-13 06:42:00,23.0,12.0,-100.00,North,1,7.0,14.0,62,0.00,,,-99.99,0.000000,,2013-11-13 11:42:00,
2013-11-13 06:52:00,23.0,12.0,-100.00,North,1,7.0,14.0,62,0.00,,,-99.99,0.000000,,2013-11-13 11:52:00,
2013-11-13 07:02:00,23.0,12.0,-100.00,North,1,7.0,14.0,62,0.00,,,-99.99,0.000000,,2013-11-13 12:02:00,
2013-11-13 07:42:00,22.0,9.0,-100.00,North,4,8.0,20.0,56,0.00,,,0.00,3.000000,,2013-11-13 12:42:00,
2013-11-13 07:52:00,22.0,9.0,-100.00,North,4,8.0,20.0,56,0.00,,,0.00,3.000000,,2013-11-13 12:52:00,
2013-11-13 08:01:00,22.0,9.0,-100.00,North,4,8.0,20.0,56,0.00,,,0.00,3.000000,,2013-11-13 13:01:00,
2013-11-13 08:42:00,24.0,11.0,-100.00,North,358,6.0,14.0,57,0.00,,,0.00,81.000000,,2013-11-13 13:42:00,
2013-11-13 08:52:00,24.0,11.0,-100.00,North,358,6.0,14.0,57,0.00,,,0.00,81.000000,,2013-11-13 13:52:00,
2013-11-13 09:02:00,24.0,11.0,-100.00,North,358,6.0,14.0,57,0.00,,,0.00,81.000000,,2013-11-13 14:02:00,
2013-11-13 09:42:00,26.0,11.0,-100.00,North,4,8.0,16.0,53,0.00,,,0.00,273.000000,,2013-11-13 14:42:00,
2013-11-13 09:53:00,26.0,11.0,-100.00,North,4,8.0,16.0,53,0.00,,,0.00,273.000000,,2013-11-13 14:53:00,
2013-11-13 10:02:00,26.0,11.0,-100.00,North,4,8.0,16.0,53,0.00,,,0.00,273.000000,,2013-11-13 15:02:00,
2013-11-13 10:43:00,29.0,14.0,-100.00,North,354,7.0,14.0,54,0.00,,,0.00,368.000000,,2013-11-13 15:43:00,
2013-11-13 10:53:00,29.0,14.0,-100.00,North,354,7.0,14.0,54,0.00,,,0.00,368.000000,,2013-11-13 15:53:00,
2013-11-13 11:03:00,29.0,14.0,-100.00,North,354,7.0,14.0,54,0.00,,,0.00,368.000000,,2013-11-13 16:03:00,
2013-11-13 11:43:00,31.0,16.0,-100.00,North,2,8.0,13.0,53,0.00,,,0.00,447.000000,,2013-11-13 16:43:00,
2013-11-13 11:53:00,31.0,16.0,-100.00,North,2,8.0,13.0,53,0.00,,,0.00,447.000000,,2013-11-13 16:53:00,
2013-11-13 12:02:00,31.0,16.0,-100.00,North,2,8.0,13.0,53,0.00,,,0.00,447.000000,,2013-11-13 17:02:00,
2013-11-13 12:42:00,32.0,17.0,-100.00,North,352,5.0,15.0,53,0.00,,,0.00,279.000000,,2013-11-13 17:42:00,
2013-11-13 12:52:00,32.0,17.0,-100.00,North,352,5.0,15.0,53,0.00,,,0.00,279.000000,,2013-11-13 17:52:00,
2013-11-13 13:02:00,32.0,17.0,-100.00,North,352,5.0,15.0,53,0.00,,,0.00,279.000000,,2013-11-13 18:02:00,
2013-11-13 13:42:00,33.0,18.0,-100.00,North,352,6.0,16.0,54,0.00,,,0.00,325.000000,,2013-11-13 18:42:00,
2013-11-13 13:52:00,33.0,18.0,-100.00,North,352,6.0,16.0,54,0.00,,,0.00,325.000000,,2013-11-13 18:52:00,
2013-11-13 14:02:00,33.0,18.0,-100.00,North,352,6.0,16.0,54,0.00,,,0.00,325.000000,,2013-11-13 19:02:00,
2013-11-13 14:42:00,31.0,15.0,-100.00,North,2,5.0,17.0,52,0.00,,,0.00,236.000000,,2013-11-13 19:42:00,
2013-11-13 14:52:00,31.0,15.0,-100.00,North,2,5.0,17.0,52,0.00,,,0.00,236.000000,,2013-11-13 19:52:00,
2013-11-13 15:02:00,31.0,15.0,-100.00,North,2,5.0,17.0,52,0.00,,,0.00,236.000000,,2013-11-13 20:02:00,
2013-11-13 15:42:00,34.0,16.0,-100.00,NNW,331,3.0,10.0,48,0.00,,,0.00,175.000000,,2013-11-13 20:42:00,
2013-11-13 15:52:00,34.0,16.0,-100.00,NNW,331,3.0,10.0,48,0.00,,,0.00,175.000000,,2013-11-13 20:52:00,
2013-11-13 16:02:00,34.0,16.0,-100.00,NNW,331,3.0,10.0,48,0.00,,,0.00,175.000000,,2013-11-13 21:02:00,
2013-11-13 16:43:00,33.0,17.0,-100.00,NW,313,4.0,7.0,51,0.00,,,0.00,115.000000,,2013-11-13 21:43:00,
2013-11-13 16:53:00,33.0,17.0,-100.00,NW,313,4.0,7.0,51,0.00,,,0.00,115.000000,,2013-11-13 21:53:00,
2013-11-13 17:03:00,33.0,17.0,-100.00,NW,313,4.0,7.0,51,0.00,,,0.00,115.000000,,2013-11-13 22:03:00,
2013-11-13 17:42:00,28.0,16.0,-100.00,NNE,22,2.0,9.0,61,0.00,,,0.00,11.000000,,2013-11-13 22:42:00,
2013-11-13 17:53:00,28.0,16.0,-100.00,NNE,22,2.0,9.0,61,0.00,,,0.00,11.000000,,2013-11-13 22:53:00,
2013-11-13 18:02:00,28.0,16.0,-100.00,NNE,22,2.0,9.0,61,0.00,,,0.00,11.000000,,2013-11-13 23:02:00,
2013-11-13 18:43:00,27.0,17.0,-100.00,SW,224,3.0,5.0,66,0.00,,,0.00,0.000000,,2013-11-13 23:43:00,
2013-11-13 18:53:00,27.0,17.0,-100.00,SW,224,3.0,5.0,66,0.00,,,0.00,0.000000,,2013-11-13 23:53:00,
2013-11-13 19:02:00,27.0,17.0,-100.00,SW,224,3.0,5.0,66,0.00,,,0.00,0.000000,,2013-11-14 00:02:00,
2013-11-13 19:42:00,26.0,17.0,-100.00,SW,232,3.0,6.0,67,0.00,,,0.00,0.000000,,2013-11-14 00:42:00,
2013-11-13 19:52:00,26.0,17.0,-100.00,SW,232,3.0,6.0,67,0.00,,,0.00,0.000000,,2013-11-14 00:52:00,
2013-11-13 20:02:00,26.0,17.0,-100.00,SW,232,3.0,6.0,67,0.00,,,0.00,0.000000,,2013-11-14 01:02:00,
2013-11-13 20:42:00,27.0,17.0,-100.00,SW,217,3.0,29.0,65,0.00,,,-99.99,0.000000,,2013-11-14 01:42:00,
2013-11-13 20:52:00,27.0,17.0,-100.00,SW,217,3.0,29.0,65,0.00,,,-99.99,0.000000,,2013-11-14 01:52:00,
2013-11-13 21:02:00,27.0,17.0,-100.00,SW,217,3.0,29.0,65,0.00,,,-99.99,0.000000,,2013-11-14 02:02:00,
2013-11-13 21:53:00,26.0,16.0,-100.00,WSW,247,4.0,5.0,66,0.00,,,-99.99,0.000000,,2013-11-14 02:53:00,
2013-11-13 22:02:00,26.0,16.0,-100.00,WSW,247,4.0,5.0,66,0.00,,,-99.99,0.000000,,2013-11-14 03:02:00,
2013-11-13 22:44:00,26.0,17.0,-100.00,WSW,253,4.0,6.0,67,0.00,,,0.00,0.000000,,2013-11-14 03:44:00,
2013-11-13 22:54:00,26.0,17.0,-100.00,WSW,253,4.0,6.0,67,0.00,,,0.00,0.000000,,2013-11-14 03:54:00,
2013-11-13 23:04:00,26.0,17.0,-100.00,WSW,253,4.0,6.0,67,0.00,,,0.00,0.000000,,2013-11-14 04:04:00,
2013-11-13 23:43:00,25.0,16.0,-100.00,West,268,3.0,5.0,68,0.00,,,0.00,0.000000,,2013-11-14 04:43:00,
2013-11-13 23:54:00,25.0,16.0,-100.00,West,268,3.0,5.0,68,0.00,,,0.00,0.000000,,2013-11-14 04:54:00,